Time;durP1;ratioP1;P1;durP2;ratioP2;P2;SDS_P1;SDS_P2;PMS_P1;PMS_P2;Temp;Humidity;BMP_temperature;BMP_pressure;BME280_temperature;BME280_humidity;BME280_pressure;Samples;Min_cycle;Max_cycle;Signal;HPM_P1;HPM_P2
2024/01/03 00:00:09;;;;;;;5.20;1.90;;;11.10;99.90;;;;;;4991738;28;20237;-69
2024/01/03 00:02:36;;;;;;;2.22;1.33;;;11.10;99.90;;;;;;4992713;28;20312;-69
2024/01/03 00:05:05;;;;;;;5.15;1.83;;;11.10;99.90;;;;;;4992356;28;20202;-71
2024/01/03 00:07:32;;;;;;;6.88;2.03;;;11.20;99.90;;;;;;4987863;28;20198;-71
2024/01/03 00:10:00;;;;;;;10.50;3.63;;;11.10;99.90;;;;;;4991868;28;20577;-73
2024/01/03 00:12:27;;;;;;;5.00;1.75;;;11.10;99.90;;;;;;4994007;28;20304;-72
2024/01/03 00:14:59;;;;;;;3.65;1.55;;;11.10;99.90;;;;;;4992351;28;20774;-70
2024/01/03 00:17:27;;;;;;;6.38;1.95;;;11.10;99.90;;;;;;4992106;28;20206;-72
2024/01/03 00:19:56;;;;;;;5.68;1.55;;;11.00;99.90;;;;;;4991627;28;20614;-70
2024/01/03 00:22:23;;;;;;;6.88;1.88;;;11.00;99.90;;;;;;4991420;28;20257;-71
2024/01/03 00:24:50;;;;;;;7.10;1.63;;;11.00;99.90;;;;;;4992398;28;20198;-73
2024/01/03 00:27:19;;;;;;;7.72;1.83;;;11.00;99.90;;;;;;4995687;28;20230;-69
2024/01/03 00:30:02;;;;;;;5.38;1.63;;;11.00;99.90;;;;;;4995116;28;20248;-71
2024/01/03 00:32:29;;;;;;;6.10;1.17;;;11.00;99.90;;;;;;4994811;28;20336;-72
2024/01/03 00:34:58;;;;;;;6.40;2.65;;;11.00;99.90;;;;;;4995670;28;20696;-72
2024/01/03 00:37:29;;;;;;;8.32;2.40;;;10.90;99.90;;;;;;4995445;28;20221;-71
2024/01/03 00:39:57;;;;;;;4.75;1.30;;;10.90;99.90;;;;;;4990631;28;20233;-71
2024/01/03 00:42:25;;;;;;;6.40;1.65;;;11.00;99.90;;;;;;4995740;28;20302;-70
2024/01/03 00:44:52;;;;;;;3.17;1.63;;;11.00;99.90;;;;;;4996494;28;20255;-73
2024/01/03 00:47:22;;;;;;;6.13;2.17;;;11.00;99.90;;;;;;4995848;28;20248;-71
2024/01/03 00:49:50;;;;;;;5.00;1.60;;;11.00;99.90;;;;;;4994746;28;20206;-71
2024/01/03 00:52:17;;;;;;;2.38;1.45;;;10.90;99.90;;;;;;4995213;28;20222;-71
2024/01/03 00:54:46;;;;;;;6.10;1.80;;;10.80;99.90;;;;;;4995351;28;20262;-72
2024/01/03 00:57:15;;;;;;;4.30;1.80;;;10.70;99.90;;;;;;4995540;28;20242;-71
2024/01/03 00:59:44;;;;;;;4.70;4.13;;;10.70;99.90;;;;;;4994801;28;20202;-71
2024/01/03 01:02:11;;;;;;;6.63;1.85;;;10.60;99.90;;;;;;4994456;28;20233;-70
2024/01/03 01:04:40;;;;;;;3.30;1.67;;;10.50;99.90;;;;;;4995512;28;20253;-70
2024/01/03 01:07:07;;;;;;;5.00;1.70;;;10.50;99.90;;;;;;4995439;28;20257;-72
2024/01/03 01:09:33;;;;;;;7.40;1.90;;;10.50;99.90;;;;;;5002599;28;20241;-69
2024/01/03 01:12:00;;;;;;;5.07;1.40;;;10.40;99.90;;;;;;4995518;28;20249;-71
2024/01/03 01:14:27;;;;;;;8.32;2.10;;;10.40;99.90;;;;;;4995466;28;20481;-73
2024/01/03 01:16:54;;;;;;;5.88;1.80;;;10.40;99.90;;;;;;4995679;28;20300;-70
2024/01/03 01:19:21;;;;;;;8.98;1.42;;;10.30;99.90;;;;;;4995978;28;20206;-72
2024/01/03 01:21:49;;;;;;;9.02;2.05;;;10.30;99.90;;;;;;4994825;28;20296;-72
2024/01/03 01:24:16;;;;;;;3.72;1.05;;;10.30;99.90;;;;;;4995260;28;20206;-71
2024/01/03 01:26:43;;;;;;;4.53;1.35;;;10.40;99.90;;;;;;4997439;28;20248;-70
2024/01/03 01:29:10;;;;;;;2.78;1.00;;;10.40;99.90;;;;;;4993495;28;20233;-72
2024/01/03 01:31:37;;;;;;;3.35;1.05;;;10.40;99.90;;;;;;4994747;28;20257;-72
2024/01/03 01:34:04;;;;;;;6.53;1.50;;;10.30;99.90;;;;;;4994017;28;20241;-72
2024/01/03 01:36:30;;;;;;;3.30;1.15;;;10.40;99.90;;;;;;4986839;28;20292;-71
2024/01/03 01:38:59;;;;;;;2.70;1.00;;;10.40;99.90;;;;;;4993369;28;20234;-69
2024/01/03 01:41:26;;;;;;;3.90;1.48;;;10.40;99.90;;;;;;4994308;28;20237;-70
2024/01/03 01:43:53;;;;;;;6.20;1.30;;;10.40;99.90;;;;;;4994370;28;20237;-70
2024/01/03 01:46:21;;;;;;;4.00;1.75;;;10.30;99.90;;;;;;4994449;28;20209;-72
2024/01/03 01:48:48;;;;;;;6.57;1.75;;;10.30;99.90;;;;;;4994211;28;20198;-70
2024/01/03 01:51:16;;;;;;;4.18;1.65;;;10.20;99.90;;;;;;4997937;28;20336;-69
2024/01/03 01:53:43;;;;;;;6.25;1.33;;;10.20;99.90;;;;;;4997266;28;20209;-70
2024/01/03 01:56:12;;;;;;;5.70;1.45;;;10.20;99.90;;;;;;4994777;28;20218;-73
2024/01/03 01:58:41;;;;;;;3.47;1.70;;;10.20;99.90;;;;;;5000618;28;20230;-71
2024/01/03 02:01:08;;;;;;;2.70;1.70;;;10.10;99.90;;;;;;4992413;28;20206;-71
2024/01/03 02:03:37;;;;;;;11.13;1.80;;;10.10;99.90;;;;;;4994527;28;20265;-69
2024/01/03 02:06:06;;;;;;;2.60;1.10;;;10.10;99.90;;;;;;4994654;28;20202;-70
2024/01/03 02:08:34;;;;;;;4.40;2.08;;;10.10;99.90;;;;;;4993656;28;20237;-69
2024/01/03 02:11:03;;;;;;;3.70;1.70;;;10.10;99.90;;;;;;4994158;28;20221;-70
2024/01/03 02:13:32;;;;;;;4.88;1.40;;;10.00;99.90;;;;;;4993803;28;20289;-73
2024/01/03 02:15:59;;;;;;;4.75;2.05;;;10.00;99.90;;;;;;4993530;28;20234;-71
2024/01/03 02:18:27;;;;;;;2.55;1.45;;;9.90;99.90;;;;;;4993085;28;20710;-71
2024/01/03 02:20:56;;;;;;;2.25;1.20;;;9.90;99.90;;;;;;4994206;28;20285;-70
2024/01/03 02:23:24;;;;;;;2.67;1.35;;;9.80;99.90;;;;;;4993837;28;20209;-71
2024/01/03 02:25:51;;;;;;;4.80;1.48;;;9.90;99.90;;;;;;4994569;28;20241;-72
2024/01/03 02:28:18;;;;;;;5.15;1.30;;;9.90;99.90;;;;;;5097302;22;20265;-69
2024/01/03 02:30:46;;;;;;;3.58;1.60;;;9.80;99.90;;;;;;4999412;28;20248;-72
2024/01/03 02:33:13;;;;;;;3.10;1.48;;;9.80;99.90;;;;;;4988841;28;20313;-69
2024/01/03 02:35:40;;;;;;;4.30;0.90;;;9.80;99.90;;;;;;4985156;28;20222;-71
2024/01/03 02:38:07;;;;;;;1.77;0.70;;;9.70;99.90;;;;;;4989913;28;20695;-71
2024/01/03 02:40:37;;;;;;;3.83;1.05;;;9.70;99.90;;;;;;4999031;28;20199;-70
2024/01/03 02:43:04;;;;;;;1.25;0.80;;;9.70;99.90;;;;;;4981291;28;20218;-70
2024/01/03 02:45:31;;;;;;;2.55;1.33;;;9.60;99.90;;;;;;4981722;28;20198;-72
2024/01/03 02:47:58;;;;;;;3.63;1.05;;;9.60;99.90;;;;;;4986133;28;20210;-69
2024/01/03 02:50:25;;;;;;;1.05;0.95;;;9.60;99.90;;;;;;4993987;28;20264;-70
2024/01/03 02:52:52;;;;;;;2.97;1.10;;;9.60;99.90;;;;;;4984571;28;20238;-70
2024/01/03 02:55:19;;;;;;;3.53;1.10;;;9.60;99.90;;;;;;4988459;28;20648;-72
2024/01/03 02:57:47;;;;;;;2.10;1.20;;;9.60;99.90;;;;;;4984508;28;20210;-70
2024/01/03 03:00:15;;;;;;;2.25;0.93;;;9.50;99.90;;;;;;4985724;28;20206;-69
2024/01/03 03:02:42;;;;;;;2.15;1.27;;;9.60;99.90;;;;;;4982607;28;20272;-72
2024/01/03 03:05:09;;;;;;;1.38;0.80;;;9.50;99.90;;;;;;4993289;28;20605;-69
2024/01/03 03:07:36;;;;;;;1.00;0.90;;;9.60;99.90;;;;;;4994820;28;20221;-70
2024/01/03 03:10:03;;;;;;;2.65;0.90;;;9.50;99.90;;;;;;4992061;28;20289;-72
2024/01/03 03:12:30;;;;;;;3.03;1.10;;;9.50;99.90;;;;;;4984680;28;20228;-71
2024/01/03 03:14:59;;;;;;;1.25;0.80;;;9.50;99.90;;;;;;4992027;28;20229;-70
2024/01/03 03:17:26;;;;;;;1.83;0.90;;;9.50;99.90;;;;;;4986729;28;20280;-69
2024/01/03 03:19:54;;;;;;;3.88;1.13;;;9.50;99.90;;;;;;4995154;28;20666;-69
2024/01/03 03:22:21;;;;;;;3.75;1.63;;;9.50;99.90;;;;;;4983090;28;20323;-72
2024/01/03 03:24:48;;;;;;;7.40;0.90;;;9.50;99.90;;;;;;4989175;28;20284;-71
2024/01/03 03:27:15;;;;;;;5.53;1.10;;;9.50;99.90;;;;;;4992640;28;20613;-70
2024/01/03 03:29:42;;;;;;;5.18;0.90;;;9.50;99.90;;;;;;4995642;28;20550;-70
2024/01/03 03:32:11;;;;;;;3.60;1.08;;;9.50;99.90;;;;;;4993543;28;20230;-70
2024/01/03 03:34:38;;;;;;;4.53;1.00;;;9.50;99.90;;;;;;4995428;28;20313;-69
2024/01/03 03:37:05;;;;;;;2.10;0.82;;;9.40;99.90;;;;;;4993147;28;20228;-71
2024/01/03 03:39:33;;;;;;;1.20;0.90;;;9.40;99.90;;;;;;4997700;28;20736;-72
2024/01/03 03:42:01;;;;;;;6.80;1.42;;;9.40;99.90;;;;;;4993543;28;20309;-68
2024/01/03 03:44:28;;;;;;;2.25;0.70;;;9.30;99.90;;;;;;4990641;28;20238;-69
2024/01/03 03:46:55;;;;;;;4.63;0.98;;;9.40;99.90;;;;;;4992865;28;20731;-73
2024/01/03 03:49:23;;;;;;;3.58;0.90;;;9.30;99.90;;;;;;4992943;28;20206;-72
2024/01/03 03:51:50;;;;;;;4.88;1.48;;;9.30;99.90;;;;;;4996169;28;20229;-72
2024/01/03 03:54:18;;;;;;;4.40;1.00;;;9.40;99.90;;;;;;4995257;28;20627;-71
2024/01/03 03:56:45;;;;;;;3.17;1.00;;;9.30;99.90;;;;;;4995263;28;20218;-72
2024/01/03 03:59:12;;;;;;;3.05;1.10;;;9.30;99.90;;;;;;4991111;28;20198;-73
2024/01/03 04:01:39;;;;;;;5.80;0.70;;;9.30;99.90;;;;;;5005292;28;20739;-72
2024/01/03 04:04:06;;;;;;;4.05;2.10;;;9.30;99.90;;;;;;4997502;28;20205;-71
2024/01/03 04:06:41;;;;;;;2.15;1.13;;;9.30;99.90;;;;;;5000754;28;20221;-70
2024/01/03 04:09:10;;;;;;;7.32;2.85;;;9.30;99.90;;;;;;4996234;28;20205;-71
2024/01/03 04:11:40;;;;;;;5.63;1.15;;;9.30;99.90;;;;;;4994700;28;20273;-69
2024/01/03 04:14:07;;;;;;;6.18;2.40;;;9.30;99.90;;;;;;4997001;28;20246;-69
2024/01/03 04:16:34;;;;;;;1.55;1.02;;;9.30;99.90;;;;;;4997912;28;20221;-71
2024/01/03 04:19:02;;;;;;;4.45;1.27;;;9.30;99.90;;;;;;4989124;28;20651;-72
2024/01/03 04:21:29;;;;;;;3.35;1.20;;;9.30;99.90;;;;;;4999314;28;20226;-70
2024/01/03 04:23:59;;;;;;;4.85;1.00;;;9.30;99.90;;;;;;4997620;28;20230;-71
2024/01/03 04:26:26;;;;;;;3.78;1.50;;;9.30;99.90;;;;;;4996192;28;20210;-72
2024/01/03 04:28:53;;;;;;;3.83;1.88;;;9.30;99.90;;;;;;4988729;28;20304;-69
2024/01/03 04:31:20;;;;;;;7.13;1.65;;;9.30;99.90;;;;;;4998980;28;20691;-70
2024/01/03 04:33:47;;;;;;;8.80;2.03;;;9.30;99.90;;;;;;5000113;28;20198;-71
2024/01/03 04:36:14;;;;;;;5.88;2.60;;;9.30;99.90;;;;;;4987801;28;20313;-72
2024/01/03 04:38:41;;;;;;;4.78;1.83;;;9.30;99.90;;;;;;4997382;28;20671;-71
2024/01/03 04:41:10;;;;;;;9.25;2.03;;;9.30;99.90;;;;;;5003565;28;20249;-70
2024/01/03 04:43:37;;;;;;;9.35;3.35;;;9.40;99.90;;;;;;4993131;28;20727;-70
2024/01/03 04:46:04;;;;;;;6.35;2.70;;;9.40;99.90;;;;;;4993558;28;20621;-71
2024/01/03 04:48:31;;;;;;;13.18;4.18;;;9.40;99.90;;;;;;4994922;28;20220;-70
2024/01/03 04:50:58;;;;;;;5.97;1.92;;;9.40;99.90;;;;;;4999303;28;20206;-72
2024/01/03 04:53:25;;;;;;;10.63;2.70;;;9.40;99.90;;;;;;4997681;28;20656;-71
2024/01/03 04:55:52;;;;;;;3.53;2.40;;;9.40;99.90;;;;;;4990305;28;20311;-70
2024/01/03 04:58:21;;;;;;;11.38;2.92;;;9.40;99.90;;;;;;4991337;28;20289;-68
2024/01/03 05:00:48;;;;;;;8.20;2.53;;;9.40;99.90;;;;;;5002527;28;20244;-70
2024/01/03 05:03:16;;;;;;;9.48;2.65;;;9.40;99.90;;;;;;4990748;28;20272;-69
2024/01/03 05:05:43;;;;;;;5.75;2.45;;;9.30;99.90;;;;;;4986190;28;20203;-71
2024/01/03 05:08:10;;;;;;;10.05;2.95;;;9.30;99.90;;;;;;4989606;28;20229;-71
2024/01/03 05:10:37;;;;;;;11.68;3.35;;;9.30;99.90;;;;;;4996494;28;20615;-69
2024/01/03 05:13:04;;;;;;;17.55;4.20;;;9.30;99.90;;;;;;4991213;28;20226;-70
2024/01/03 05:15:32;;;;;;;13.05;4.28;;;9.30;99.90;;;;;;4986828;28;20210;-69
2024/01/03 05:17:59;;;;;;;12.02;3.20;;;9.30;99.90;;;;;;4991815;28;20265;-71
2024/01/03 05:20:26;;;;;;;11.60;2.60;;;9.40;99.90;;;;;;4999027;28;20264;-69
2024/01/03 05:22:54;;;;;;;6.78;2.88;;;9.40;99.90;;;;;;4991690;28;20283;-69
2024/01/03 05:25:21;;;;;;;10.95;3.97;;;9.40;99.90;;;;;;4990235;28;20224;-69
2024/01/03 05:27:47;;;;;;;10.02;2.20;;;9.40;99.90;;;;;;4988417;28;20198;-70
2024/01/03 05:30:15;;;;;;;9.13;1.95;;;9.40;99.90;;;;;;4996218;28;20617;-70
2024/01/03 05:32:44;;;;;;;12.38;2.47;;;9.50;99.90;;;;;;4989965;28;20285;-70
2024/01/03 05:35:11;;;;;;;16.52;2.38;;;9.50;99.90;;;;;;4987867;28;20207;-71
2024/01/03 05:37:38;;;;;;;43.42;4.03;;;9.60;99.90;;;;;;4990939;28;20254;-71
2024/01/03 05:40:06;;;;;;;8.45;2.75;;;9.60;99.90;;;;;;4997291;28;20213;-71
2024/01/03 05:42:34;;;;;;;11.35;2.33;;;9.70;99.90;;;;;;4995508;28;20300;-73
2024/01/03 05:45:01;;;;;;;7.40;1.73;;;9.70;99.90;;;;;;4989574;28;20548;-71
2024/01/03 05:47:28;;;;;;;5.80;2.22;;;9.70;99.90;;;;;;4993333;28;20264;-71
2024/01/03 05:49:58;;;;;;;5.80;1.80;;;9.80;99.90;;;;;;4984011;28;20238;-68
2024/01/03 05:52:24;;;;;;;9.65;1.83;;;9.80;99.90;;;;;;4994138;28;20574;-70
2024/01/03 05:54:51;;;;;;;7.63;2.38;;;9.90;99.90;;;;;;4995872;28;20253;-69
2024/01/03 05:57:27;;;;;;;7.35;2.00;;;9.80;99.90;;;;;;4991292;28;20214;-71
2024/01/03 05:59:54;;;;;;;17.02;2.35;;;9.90;99.90;;;;;;4987810;28;20225;-72
2024/01/03 06:02:21;;;;;;;15.10;3.33;;;9.90;99.90;;;;;;4994963;28;20229;-70
2024/01/03 06:04:49;;;;;;;3.85;2.30;;;9.90;99.90;;;;;;4994832;28;20229;-70
2024/01/03 06:07:18;;;;;;;12.57;2.35;;;9.90;99.90;;;;;;4998417;28;20649;-70
2024/01/03 06:09:45;;;;;;;3.20;1.38;;;9.90;99.90;;;;;;4993627;28;20923;-69
2024/01/03 06:12:12;;;;;;;4.88;1.52;;;9.80;99.90;;;;;;4994016;28;20279;-70
2024/01/03 06:14:39;;;;;;;3.40;1.88;;;9.90;99.90;;;;;;4995369;28;20240;-72
2024/01/03 06:17:06;;;;;;;6.07;2.28;;;9.90;99.90;;;;;;4994522;28;20206;-69
2024/01/03 06:19:39;;;;;;;5.72;1.50;;;9.90;99.90;;;;;;4993997;28;20237;-70
2024/01/03 06:22:05;;;;;;;5.70;1.75;;;9.90;99.90;;;;;;4989933;28;20256;-71
2024/01/03 06:24:34;;;;;;;6.50;1.92;;;9.90;99.90;;;;;;4995059;28;20206;-73
2024/01/03 06:27:01;;;;;;;4.85;1.58;;;9.90;99.90;;;;;;4989833;28;20193;-70
2024/01/03 06:29:28;;;;;;;8.18;1.67;;;9.90;99.90;;;;;;4994066;28;20221;-71
2024/01/03 06:31:55;;;;;;;4.68;1.85;;;9.80;99.90;;;;;;4996049;28;20245;-70
2024/01/03 06:34:25;;;;;;;5.32;1.95;;;9.80;99.90;;;;;;4993023;28;20206;-70
2024/01/03 06:36:52;;;;;;;5.68;1.75;;;9.80;99.90;;;;;;4999062;28;20695;-70
2024/01/03 06:39:19;;;;;;;4.80;1.80;;;9.80;99.90;;;;;;4984387;28;20623;-69
2024/01/03 06:41:48;;;;;;;7.63;2.50;;;9.80;99.90;;;;;;4996081;28;20234;-70
2024/01/03 06:44:15;;;;;;;8.32;2.78;;;9.80;99.90;;;;;;4992920;28;20202;-70
2024/01/03 06:46:42;;;;;;;5.72;2.10;;;9.90;99.90;;;;;;4987582;28;20258;-72
2024/01/03 06:49:09;;;;;;;10.85;2.75;;;9.90;99.90;;;;;;4983505;28;20653;-69
2024/01/03 06:51:36;;;;;;;9.38;1.83;;;10.00;99.90;;;;;;4993728;28;20250;-69
2024/01/03 06:54:03;;;;;;;10.18;1.95;;;10.00;99.90;;;;;;4982751;28;20550;-72
2024/01/03 06:56:30;;;;;;;15.55;2.85;;;10.00;99.90;;;;;;4989636;28;20229;-72
2024/01/03 06:58:59;;;;;;;14.23;2.83;;;10.00;99.90;;;;;;4982123;28;20273;-72
2024/01/03 07:01:26;;;;;;;10.68;2.22;;;10.00;99.90;;;;;;4992622;28;20312;-73
2024/01/03 07:03:54;;;;;;;16.02;3.10;;;10.00;99.90;;;;;;4978859;28;20666;-69
2024/01/03 07:06:21;;;;;;;8.93;2.22;;;10.00;99.90;;;;;;4984704;28;20241;-70
2024/01/03 07:08:49;;;;;;;9.27;2.10;;;10.00;99.90;;;;;;4981561;28;20205;-69
2024/01/03 07:11:16;;;;;;;10.13;2.38;;;10.00;99.90;;;;;;4985620;28;20226;-70
2024/01/03 07:13:43;;;;;;;9.05;2.67;;;10.00;99.90;;;;;;4995109;28;20684;-71
2024/01/03 07:16:12;;;;;;;9.70;2.35;;;10.10;99.90;;;;;;4987242;28;20456;-71
2024/01/03 07:18:39;;;;;;;8.02;2.38;;;10.10;99.90;;;;;;4994845;28;20316;-71
2024/01/03 07:21:06;;;;;;;10.70;3.20;;;10.20;99.90;;;;;;4985559;28;20611;-72
2024/01/03 07:23:33;;;;;;;8.90;2.55;;;10.20;99.90;;;;;;4986793;28;20202;-71
2024/01/03 07:25:59;;;;;;;5.00;1.52;;;10.20;99.90;;;;;;4981550;28;20222;-70
2024/01/03 07:28:26;;;;;;;7.28;2.55;;;10.20;99.90;;;;;;4983421;28;20248;-68
2024/01/03 07:30:53;;;;;;;7.03;2.15;;;10.10;99.90;;;;;;4979689;28;20660;-71
2024/01/03 07:33:22;;;;;;;7.25;2.30;;;10.10;99.90;;;;;;4981137;28;20241;-70
2024/01/03 07:35:49;;;;;;;16.85;2.63;;;10.10;99.90;;;;;;4989205;28;20206;-73
2024/01/03 07:38:16;;;;;;;9.80;2.45;;;10.10;99.90;;;;;;4986968;28;20230;-69
2024/01/03 07:40:43;;;;;;;10.02;3.00;;;10.10;99.90;;;;;;4993624;28;20363;-71
2024/01/03 07:43:10;;;;;;;7.28;2.55;;;10.10;99.90;;;;;;4984667;28;20292;-71
2024/01/03 07:45:37;;;;;;;7.50;2.63;;;10.10;99.90;;;;;;4989503;28;20611;-70
2024/01/03 07:48:04;;;;;;;15.10;3.00;;;10.10;99.90;;;;;;4992870;28;20249;-69
2024/01/03 07:50:33;;;;;;;13.88;3.53;;;10.10;99.90;;;;;;4987096;28;20668;-69
2024/01/03 07:53:00;;;;;;;7.88;3.08;;;10.10;99.90;;;;;;4985044;28;20276;-71
2024/01/03 07:55:27;;;;;;;8.25;2.80;;;10.10;99.90;;;;;;4983093;28;20217;-71
2024/01/03 07:57:54;;;;;;;8.52;3.60;;;10.10;99.90;;;;;;4988228;28;20268;-72
2024/01/03 08:00:22;;;;;;;12.23;2.70;;;10.10;99.90;;;;;;4983541;28;20622;-72
2024/01/03 08:02:49;;;;;;;11.98;3.15;;;10.10;99.90;;;;;;4992523;28;20651;-70
2024/01/03 08:05:16;;;;;;;12.23;3.70;;;10.20;99.90;;;;;;4993982;28;20241;-72
2024/01/03 08:07:44;;;;;;;22.35;4.95;;;10.20;99.90;;;;;;4986654;28;20249;-69
2024/01/03 08:10:12;;;;;;;12.65;3.58;;;10.10;99.90;;;;;;4983943;28;20210;-69
2024/01/03 08:12:39;;;;;;;13.35;3.65;;;10.10;99.90;;;;;;4991881;28;20218;-69
2024/01/03 08:15:07;;;;;;;10.48;3.17;;;10.10;99.90;;;;;;4990725;28;20206;-71
2024/01/03 08:17:34;;;;;;;11.68;3.15;;;10.10;99.90;;;;;;4988744;28;20295;-71
2024/01/03 08:20:01;;;;;;;8.25;2.42;;;10.10;99.90;;;;;;4992758;28;20503;-72
2024/01/03 08:22:28;;;;;;;8.35;3.22;;;10.10;99.90;;;;;;4991244;28;20288;-69
2024/01/03 08:24:56;;;;;;;10.02;3.25;;;10.10;99.90;;;;;;4983987;28;20257;-71
2024/01/03 08:27:23;;;;;;;9.80;3.60;;;10.20;99.90;;;;;;4992472;28;20284;-71
2024/01/03 08:29:51;;;;;;;9.82;2.85;;;10.30;99.90;;;;;;4991695;28;20292;-69
2024/01/03 08:32:18;;;;;;;15.63;3.50;;;10.40;99.90;;;;;;4997106;28;20272;-69
2024/01/03 08:34:46;;;;;;;17.58;4.13;;;10.40;99.90;;;;;;4984498;28;20652;-71
2024/01/03 08:37:13;;;;;;;13.82;3.75;;;10.50;99.90;;;;;;4989377;28;20304;-71
2024/01/03 08:39:40;;;;;;;11.07;4.25;;;10.60;99.90;;;;;;4985173;28;20203;-72
2024/01/03 08:42:09;;;;;;;11.32;4.70;;;10.50;99.90;;;;;;4998139;28;20654;-70
2024/01/03 08:44:36;;;;;;;10.35;3.67;;;10.70;99.90;;;;;;4982187;28;20230;-67
2024/01/03 08:47:03;;;;;;;14.20;2.97;;;10.80;99.90;;;;;;4988406;28;20206;-68
2024/01/03 08:49:30;;;;;;;17.27;4.70;;;10.90;99.90;;;;;;4991483;28;20208;-71
2024/01/03 08:51:57;;;;;;;15.50;4.25;;;10.90;99.90;;;;;;4998015;28;20296;-72
2024/01/03 08:54:25;;;;;;;19.08;3.28;;;10.90;99.90;;;;;;4990001;28;20244;-74
2024/01/03 08:56:53;;;;;;;10.35;3.00;;;10.80;99.90;;;;;;4981991;28;20203;-69
2024/01/03 08:59:21;;;;;;;14.65;4.03;;;10.70;99.90;;;;;;4993639;28;20300;-71
2024/01/03 09:01:52;;;;;;;8.77;3.13;;;10.80;99.90;;;;;;4989023;28;20224;-70
2024/01/03 09:04:20;;;;;;;6.47;2.28;;;10.70;99.90;;;;;;4989295;28;20233;-71
2024/01/03 09:06:47;;;;;;;14.82;3.72;;;10.70;99.90;;;;;;4990884;28;20202;-72
2024/01/03 09:09:14;;;;;;;13.77;3.45;;;10.80;99.90;;;;;;4985390;28;20336;-70
2024/01/03 09:11:42;;;;;;;25.92;3.40;;;10.70;99.90;;;;;;4990104;28;20231;-71
2024/01/03 09:14:12;;;;;;;10.38;3.25;;;10.70;99.90;;;;;;4987451;28;20562;-69
2024/01/03 09:16:41;;;;;;;12.70;4.20;;;10.80;99.90;;;;;;4988289;28;20219;-72
2024/01/03 09:19:09;;;;;;;13.68;3.05;;;10.70;99.90;;;;;;4993458;28;20288;-73
2024/01/03 09:21:36;;;;;;;19.58;3.60;;;10.80;99.90;;;;;;4995139;28;20230;-72
2024/01/03 09:24:05;;;;;;;10.80;4.15;;;10.80;99.90;;;;;;4994226;28;20286;-72
2024/01/03 09:26:32;;;;;;;13.85;2.97;;;10.80;99.90;;;;;;4990784;28;20219;-69
2024/01/03 09:28:59;;;;;;;19.08;3.78;;;10.90;99.90;;;;;;4993695;28;20242;-72
2024/01/03 09:31:27;;;;;;;16.80;4.30;;;10.90;99.90;;;;;;4990862;28;20230;-73
2024/01/03 09:33:56;;;;;;;12.23;3.75;;;11.00;99.90;;;;;;4986128;28;20206;-74
2024/01/03 09:36:23;;;;;;;7.78;3.72;;;11.40;99.90;;;;;;4993627;28;20245;-71
2024/01/03 09:38:50;;;;;;;17.27;3.15;;;11.60;99.90;;;;;;4981488;28;20453;-73
2024/01/03 09:41:18;;;;;;;12.40;3.30;;;11.70;99.90;;;;;;4987516;28;20241;-73
2024/01/03 09:43:46;;;;;;;12.32;3.10;;;11.40;99.90;;;;;;4986983;28;20608;-69
2024/01/03 09:46:13;;;;;;;18.60;3.67;;;11.40;99.90;;;;;;4994931;28;20201;-70
2024/01/03 09:48:41;;;;;;;14.23;3.33;;;11.50;99.90;;;;;;4988518;28;20309;-68
2024/01/03 09:51:10;;;;;;;14.98;3.00;;;11.70;99.90;;;;;;4995816;28;20625;-70
2024/01/03 09:53:38;;;;;;;9.70;3.13;;;11.70;99.90;;;;;;4992874;28;20664;-71
2024/01/03 09:56:06;;;;;;;11.40;3.55;;;11.90;99.90;;;;;;4986542;28;20255;-72
2024/01/03 09:58:34;;;;;;;12.85;2.92;;;12.00;99.90;;;;;;4991089;28;20542;-69
2024/01/03 10:01:01;;;;;;;8.07;2.17;;;11.80;99.90;;;;;;4987031;28;20210;-69
2024/01/03 10:03:28;;;;;;;10.95;2.40;;;11.60;99.90;;;;;;4988346;28;20726;-68
2024/01/03 10:06:06;;;;;;;9.75;3.30;;;11.50;99.90;;;;;;4989435;28;20725;-71
2024/01/03 10:08:35;;;;;;;9.90;2.97;;;11.50;99.90;;;;;;4985217;28;20232;-71
2024/01/03 10:11:02;;;;;;;11.57;3.05;;;11.50;99.90;;;;;;4992934;28;20221;-69
2024/01/03 10:13:29;;;;;;;7.10;2.30;;;11.40;99.90;;;;;;4991874;28;20233;-68
2024/01/03 10:16:04;;;;;;;9.90;2.80;;;11.30;99.90;;;;;;4988716;28;20207;-70
2024/01/03 10:18:32;;;;;;;12.93;2.85;;;11.20;99.90;;;;;;4989163;28;20231;-68
2024/01/03 10:21:13;;;;;;;4.50;2.35;;;11.20;99.90;;;;;;4996828;28;20292;-69
2024/01/03 10:23:42;;;;;;;10.68;4.70;;;11.10;99.90;;;;;;4990036;28;20206;-71
2024/01/03 10:26:09;;;;;;;6.45;2.67;;;11.10;99.90;;;;;;4979762;28;20206;-71
2024/01/03 10:28:36;;;;;;;17.77;3.95;;;11.10;99.90;;;;;;4991648;28;20201;-72
2024/01/03 10:31:07;;;;;;;8.60;3.05;;;11.00;99.90;;;;;;4996033;28;20205;-71
2024/01/03 10:33:35;;;;;;;7.18;2.45;;;10.90;99.90;;;;;;4989772;28;20205;-71
2024/01/03 10:36:10;;;;;;;7.07;2.90;;;10.90;99.90;;;;;;4990504;28;20313;-70
2024/01/03 10:38:38;;;;;;;8.00;3.15;;;11.00;99.90;;;;;;4994085;28;20228;-71
2024/01/03 10:41:07;;;;;;;9.98;3.63;;;11.00;99.90;;;;;;4995171;28;20287;-70
2024/01/03 10:43:35;;;;;;;9.98;3.55;;;11.00;99.90;;;;;;4993572;28;20276;-70
2024/01/03 10:46:05;;;;;;;12.55;5.63;;;11.10;99.90;;;;;;4992580;28;20205;-72
2024/01/03 10:48:33;;;;;;;8.55;2.65;;;11.20;99.90;;;;;;4993025;28;20633;-69
2024/01/03 10:51:01;;;;;;;7.65;2.30;;;11.30;99.90;;;;;;4993033;28;20204;-69
2024/01/03 10:53:34;;;;;;;6.40;2.53;;;11.30;99.90;;;;;;4992316;28;20293;-70
2024/01/03 10:56:02;;;;;;;13.98;3.35;;;11.00;99.90;;;;;;4993684;28;20253;-69
2024/01/03 10:58:30;;;;;;;7.93;1.83;;;11.00;99.90;;;;;;4992149;28;20306;-70
2024/01/03 11:01:04;;;;;;;9.05;3.08;;;11.10;99.90;;;;;;4993523;28;20619;-71
2024/01/03 11:03:38;;;;;;;7.10;2.30;;;10.90;99.90;;;;;;4990435;28;20207;-69
2024/01/03 11:06:12;;;;;;;7.57;2.10;;;11.00;99.90;;;;;;4989771;28;20688;-72
2024/01/03 11:08:47;;;;;;;8.65;2.95;;;11.10;99.90;;;;;;4992537;28;20570;-70
2024/01/03 11:11:29;;;;;;;5.85;2.22;;;11.10;99.90;;;;;;4991647;28;20259;-72
2024/01/03 11:13:58;;;;;;;4.75;2.15;;;11.10;99.90;;;;;;4993220;28;20293;-71
2024/01/03 11:16:36;;;;;;;7.47;1.73;;;11.00;99.90;;;;;;4993072;28;20214;-74
2024/01/03 11:19:04;;;;;;;9.90;2.60;;;10.90;99.90;;;;;;4994891;28;20228;-71
2024/01/03 11:21:51;;;;;;;6.20;2.13;;;10.80;99.90;;;;;;4993518;28;20233;-70
2024/01/03 11:24:46;;;;;;;18.88;3.80;;;10.80;99.90;;;;;;4993886;28;20202;-71
2024/01/03 11:27:21;;;;;;;6.72;2.10;;;10.80;99.90;;;;;;4988887;28;20204;-74
2024/01/03 11:29:50;;;;;;;5.47;2.00;;;10.80;99.90;;;;;;4984557;28;20656;-72
2024/01/03 11:32:27;;;;;;;9.13;2.85;;;10.90;99.90;;;;;;4989676;28;20253;-71
2024/01/03 11:34:54;;;;;;;5.55;1.88;;;10.80;99.90;;;;;;4989978;28;20201;-72
2024/01/03 11:37:36;;;;;;;12.55;2.42;;;10.90;99.90;;;;;;4993472;28;20613;-72
2024/01/03 11:40:06;;;;;;;8.60;2.28;;;11.00;99.90;;;;;;4985800;28;20237;-71
2024/01/03 11:42:34;;;;;;;11.07;1.75;;;11.00;99.90;;;;;;4993463;28;20226;-71
2024/01/03 11:45:05;;;;;;;6.07;2.05;;;11.00;99.90;;;;;;4988676;28;20203;-72
2024/01/03 11:47:33;;;;;;;8.85;2.40;;;11.00;99.90;;;;;;4990775;28;20233;-72
2024/01/03 11:50:03;;;;;;;6.70;2.60;;;10.90;99.90;;;;;;4993449;28;20241;-71
2024/01/03 11:52:30;;;;;;;5.13;1.45;;;10.90;99.90;;;;;;4992680;28;20221;-70
2024/01/03 11:55:06;;;;;;;10.35;2.20;;;11.00;99.90;;;;;;4993109;28;20264;-73
2024/01/03 11:57:34;;;;;;;6.50;1.63;;;10.90;99.90;;;;;;4993989;28;20679;-71
2024/01/03 12:00:03;;;;;;;13.48;2.65;;;11.00;99.90;;;;;;4993408;28;20276;-74
2024/01/03 12:02:30;;;;;;;10.63;2.20;;;11.10;99.90;;;;;;4994595;28;20226;-70
2024/01/03 12:05:01;;;;;;;12.35;2.20;;;11.10;99.90;;;;;;4990962;28;20566;-73
2024/01/03 12:07:30;;;;;;;11.23;1.90;;;11.10;99.90;;;;;;4990528;28;20620;-73
2024/01/03 12:09:58;;;;;;;7.78;1.85;;;11.00;99.90;;;;;;4993636;28;20273;-69
2024/01/03 12:12:26;;;;;;;8.93;1.80;;;11.00;99.90;;;;;;4997197;28;20305;-72
2024/01/03 12:14:54;;;;;;;11.05;2.33;;;11.00;99.90;;;;;;4994575;28;20205;-71
2024/01/03 12:17:29;;;;;;;7.55;2.25;;;11.10;99.90;;;;;;4994438;28;20202;-74
2024/01/03 12:20:07;;;;;;;4.18;1.85;;;11.10;99.90;;;;;;4992364;28;20244;-74
2024/01/03 12:22:35;;;;;;;7.88;1.70;;;11.20;99.90;;;;;;4995812;28;20225;-72
2024/01/03 12:25:02;;;;;;;11.43;3.00;;;11.30;99.90;;;;;;4995578;28;20208;-71
2024/01/03 12:27:31;;;;;;;9.13;1.50;;;11.30;99.90;;;;;;4996208;28;20284;-70
2024/01/03 12:30:13;;;;;;;6.65;1.38;;;11.30;99.90;;;;;;4995535;28;20274;-72
2024/01/03 12:32:41;;;;;;;7.97;2.70;;;11.30;99.90;;;;;;4998416;28;20287;-71
2024/01/03 12:35:09;;;;;;;4.80;1.20;;;11.20;99.90;;;;;;4997251;28;20497;-73
2024/01/03 12:37:36;;;;;;;4.85;2.42;;;11.30;99.90;;;;;;4993168;28;20223;-71
2024/01/03 12:40:03;;;;;;;14.80;3.10;;;11.20;99.90;;;;;;4989431;28;20222;-72
2024/01/03 12:42:30;;;;;;;7.55;2.55;;;11.20;99.90;;;;;;5000606;28;20287;-70
2024/01/03 12:44:58;;;;;;;9.07;2.58;;;11.10;99.90;;;;;;4996175;28;20274;-70
2024/01/03 12:47:24;;;;;;;8.93;3.00;;;11.00;99.90;;;;;;4989538;28;20206;-70
2024/01/03 12:49:55;;;;;;;8.43;2.10;;;11.00;99.90;;;;;;4994701;28;20241;-74
2024/01/03 12:52:29;;;;;;;6.45;3.45;;;10.90;99.90;;;;;;4995674;28;20582;-71